createdAt,value
2023-02-23T00:01:54.212Z,94375.88
2023-02-23T00:04:23.569Z,94383.16
2023-02-23T00:06:53.841Z,94384.16
2023-02-23T00:09:24.336Z,94392.38
2023-02-23T00:11:53.107Z,94397.56
2023-02-23T00:14:21.055Z,94401.94
2023-02-23T00:16:49.025Z,94402.44
2023-02-23T00:19:17.651Z,94401.78
2023-02-23T00:21:45.938Z,94406.13
2023-02-23T00:24:16.638Z,94400.16
2023-02-23T00:26:45.388Z,94402.25
2023-02-23T00:29:17.201Z,94399.97
2023-02-23T00:31:45.538Z,94403.66
2023-02-23T00:34:15.257Z,94398.81
2023-02-23T00:36:44.019Z,94394.28
2023-02-23T00:39:21.044Z,94402.06
2023-02-23T00:41:52.278Z,94407.88
2023-02-23T00:44:21.288Z,94397.50
2023-02-23T00:46:51.552Z,94407.50
2023-02-23T00:49:24.271Z,94405.53
2023-02-23T00:51:53.201Z,94384.63
2023-02-23T00:54:22.366Z,94400.84
2023-02-23T00:56:52.543Z,94387.09
2023-02-23T00:59:21.129Z,94398.41
2023-02-23T01:01:50.025Z,94396.75
2023-02-23T01:04:17.937Z,94397.38
2023-02-23T01:06:46.445Z,94397.63
2023-02-23T01:09:21.899Z,94389.19
2023-02-23T01:11:51.222Z,94389.31
2023-02-23T01:14:19.122Z,94402.56
2023-02-23T01:16:47.045Z,94396.53
2023-02-23T01:19:15.051Z,94387.16
2023-02-23T01:21:44.279Z,94395.16
2023-02-23T01:24:12.996Z,94391.34
2023-02-23T01:26:42.712Z,94388.00
2023-02-23T01:29:14.198Z,94390.06
2023-02-23T01:31:45.502Z,94392.50
2023-02-23T01:34:15.706Z,94383.03
2023-02-23T01:36:45.240Z,94388.75
2023-02-23T01:39:15.332Z,94384.66
2023-02-23T01:41:43.773Z,94392.94
2023-02-23T01:44:56.077Z,94393.41
2023-02-23T01:47:26.840Z,94387.56
2023-02-23T01:49:54.749Z,94389.91
2023-02-23T01:52:22.710Z,94389.25
2023-02-23T01:54:55.821Z,94379.22
2023-02-23T01:57:27.119Z,94380.50
2023-02-23T01:59:56.108Z,94390.22
2023-02-23T02:02:33.579Z,94387.63
2023-02-23T02:05:05.022Z,94383.63
2023-02-23T02:07:35.547Z,94383.84
2023-02-23T02:10:21.452Z,94388.84
2023-02-23T02:12:53.597Z,94386.84
2023-02-23T02:15:26.082Z,94380.69
2023-02-23T02:18:09.331Z,94372.91
2023-02-23T02:21:04.852Z,94382.69
2023-02-23T02:24:08.260Z,94386.66
2023-02-23T02:26:53.811Z,94384.81
2023-02-23T02:29:48.408Z,94391.00
2023-02-23T02:33:01.414Z,94391.66
2023-02-23T02:36:04.525Z,94392.75
2023-02-23T02:38:51.029Z,94393.06
2023-02-23T02:41:27.178Z,94385.72
2023-02-23T02:44:01.192Z,94379.31
2023-02-23T02:46:32.989Z,94387.41
2023-02-23T02:49:06.820Z,94385.25
2023-02-23T02:51:42.523Z,94385.47
2023-02-23T02:54:22.216Z,94390.78
2023-02-23T02:56:51.474Z,94389.44
2023-02-23T02:59:38.765Z,94391.28
2023-02-23T03:02:24.943Z,94384.19
2023-02-23T03:05:10.088Z,94394.97
2023-02-23T03:08:00.251Z,94390.22
2023-02-23T03:10:55.284Z,94390.38
2023-02-23T03:13:51.577Z,94374.66
2023-02-23T03:16:45.299Z,94393.38
2023-02-23T03:19:36.833Z,94380.69
2023-02-23T03:22:30.408Z,94395.81
2023-02-23T03:25:21.007Z,94406.84
2023-02-23T03:28:12.873Z,94397.41
2023-02-23T03:31:07.098Z,94408.66
2023-02-23T03:34:00.020Z,94405.28
2023-02-23T03:36:48.614Z,94405.84
2023-02-23T03:39:40.643Z,94407.75
2023-02-23T03:42:31.824Z,94411.25
2023-02-23T03:45:22.656Z,94409.94
2023-02-23T03:48:09.949Z,94410.47
2023-02-23T03:50:59.322Z,94415.84
2023-02-23T03:53:51.683Z,94419.81
2023-02-23T03:56:38.984Z,94422.78
2023-02-23T03:59:26.724Z,94422.09
2023-02-23T04:02:15.137Z,94422.94
2023-02-23T04:05:03.850Z,94426.69
2023-02-23T04:07:50.236Z,94424.91
2023-02-23T04:10:36.343Z,94417.06
2023-02-23T04:13:17.243Z,94418.78
2023-02-23T04:15:51.057Z,94426.88
2023-02-23T04:18:25.409Z,94424.22
2023-02-23T04:20:53.631Z,94413.19
2023-02-23T04:23:22.863Z,94421.34
2023-02-23T04:25:51.607Z,94416.03
2023-02-23T04:28:19.778Z,94400.13
2023-02-23T04:30:48.116Z,94419.06
2023-02-23T04:33:16.643Z,94423.50
2023-02-23T04:35:46.160Z,94419.06
2023-02-23T04:38:14.089Z,94413.78
2023-02-23T04:40:41.959Z,94429.53
2023-02-23T04:43:11.864Z,94422.78
2023-02-23T04:45:39.760Z,94425.50
2023-02-23T04:48:08.370Z,94422.09
2023-02-23T04:50:36.724Z,94408.69
2023-02-23T04:53:05.946Z,94418.72
2023-02-23T04:55:33.937Z,94418.56
2023-02-23T04:58:02.880Z,94423.72
2023-02-23T05:00:31.590Z,94422.53
2023-02-23T05:02:59.532Z,94423.34
2023-02-23T05:05:27.413Z,94428.50
2023-02-23T05:07:55.867Z,94422.81
2023-02-23T05:10:25.463Z,94429.34
2023-02-23T05:12:53.377Z,94432.19
2023-02-23T05:15:21.320Z,94427.19
2023-02-23T05:17:49.246Z,94430.69
2023-02-23T05:20:17.167Z,94431.94
2023-02-23T05:22:45.113Z,94440.47
2023-02-23T05:25:13.106Z,94437.81
2023-02-23T05:27:42.625Z,94438.34
2023-02-23T05:30:11.660Z,94441.22
2023-02-23T05:32:39.575Z,94452.19
2023-02-23T05:35:09.020Z,94438.53
2023-02-23T05:37:37.076Z,94450.28
2023-02-23T05:40:05.669Z,94449.59
2023-02-23T05:42:33.551Z,94447.72
2023-02-23T05:45:04.966Z,94447.63
2023-02-23T05:47:35.574Z,94446.25
2023-02-23T05:50:03.568Z,94462.38
2023-02-23T05:52:31.399Z,94464.94
2023-02-23T05:54:59.294Z,94474.69
2023-02-23T05:57:28.647Z,94473.75
2023-02-23T05:59:56.980Z,94469.16
2023-02-23T06:02:26.521Z,94482.25
2023-02-23T06:04:54.640Z,94479.00
2023-02-23T06:07:22.539Z,94485.88
2023-02-23T06:09:50.463Z,94489.09
2023-02-23T06:12:18.487Z,94479.06
2023-02-23T06:14:46.455Z,94483.00
2023-02-23T06:17:14.386Z,94486.09
2023-02-23T06:19:43.662Z,94489.59
2023-02-23T06:22:11.543Z,94487.25
2023-02-23T06:24:39.599Z,94494.03
2023-02-23T06:27:07.540Z,94497.91
2023-02-23T06:29:37.302Z,94489.34
2023-02-23T06:32:06.545Z,94496.03
2023-02-23T06:34:34.820Z,94500.22
2023-02-23T06:37:04.138Z,94505.78
2023-02-23T06:39:33.031Z,94498.84
2023-02-23T06:42:00.870Z,94495.03
2023-02-23T06:44:28.934Z,94478.66
2023-02-23T06:46:56.809Z,94505.31
2023-02-23T06:49:24.821Z,94491.88
2023-02-23T06:51:52.711Z,94491.19
2023-02-23T06:54:23.128Z,94509.16
2023-02-23T06:56:51.266Z,94502.19
2023-02-23T06:59:19.240Z,94491.88
2023-02-23T07:01:47.248Z,94495.50
2023-02-23T07:04:16.865Z,94507.91
2023-02-23T07:06:45.149Z,94505.53
2023-02-23T07:09:13.101Z,94506.59
2023-02-23T07:11:44.912Z,94510.34
2023-02-23T07:14:21.565Z,94504.47
2023-02-23T07:16:54.286Z,94497.09
2023-02-23T07:19:23.448Z,94499.44
2023-02-23T07:21:51.441Z,94506.75
2023-02-23T07:24:19.418Z,94501.34
2023-02-23T07:26:49.380Z,94507.91
2023-02-23T07:29:17.506Z,94496.06
2023-02-23T07:31:45.495Z,94495.97
2023-02-23T07:34:13.830Z,94473.00
2023-02-23T07:36:41.804Z,94493.69
2023-02-23T07:39:09.704Z,94486.88
2023-02-23T07:41:37.660Z,94478.19
2023-02-23T07:44:07.362Z,94484.19
2023-02-23T07:46:35.351Z,94492.47
2023-02-23T07:49:04.043Z,94488.66
2023-02-23T07:51:31.975Z,94484.47
2023-02-23T07:54:04.752Z,94479.34
2023-02-23T07:56:32.816Z,94485.84
2023-02-23T07:59:00.738Z,94481.84
2023-02-23T08:01:30.487Z,94460.16
2023-02-23T08:03:58.593Z,94475.25
2023-02-23T08:06:26.688Z,94461.50
2023-02-23T08:08:54.900Z,94478.19
2023-02-23T08:11:22.793Z,94481.88
2023-02-23T08:13:50.864Z,94482.09
2023-02-23T08:16:19.439Z,94476.56
2023-02-23T08:18:48.840Z,94479.16
2023-02-23T08:21:16.872Z,94471.06
2023-02-23T08:23:45.077Z,94470.25
2023-02-23T08:26:12.992Z,94468.78
2023-02-23T08:28:41.886Z,94476.84
2023-02-23T08:31:11.218Z,94480.19
2023-02-23T08:33:39.909Z,94483.28
2023-02-23T08:36:10.252Z,94486.19
2023-02-23T08:38:38.188Z,94481.94
2023-02-23T08:41:07.127Z,94474.16
2023-02-23T08:43:35.043Z,94484.13
2023-02-23T08:46:03.005Z,94451.69
2023-02-23T08:48:30.974Z,94477.19
2023-02-23T08:51:01.588Z,94467.44
2023-02-23T08:53:30.974Z,94477.91
2023-02-23T08:56:00.717Z,94473.78
2023-02-23T08:58:30.541Z,94463.06
2023-02-23T09:00:59.177Z,94464.91
2023-02-23T09:03:28.675Z,94473.25
2023-02-23T09:05:57.300Z,94468.53
2023-02-23T09:08:25.392Z,94465.66
2023-02-23T09:10:54.778Z,94470.34
2023-02-23T09:13:22.655Z,94466.22
2023-02-23T09:15:50.558Z,94464.81
2023-02-23T09:18:18.569Z,94467.19
2023-02-23T09:20:46.923Z,94470.16
2023-02-23T09:23:14.831Z,94461.53
2023-02-23T09:25:44.383Z,94458.66
2023-02-23T09:28:15.184Z,94457.22
2023-02-23T09:30:44.421Z,94456.94
2023-02-23T09:33:12.557Z,94457.53
2023-02-23T09:35:41.588Z,94463.88
2023-02-23T09:38:10.253Z,94470.19
2023-02-23T09:40:46.830Z,94466.13
2023-02-23T09:43:20.168Z,94457.31
2023-02-23T09:45:52.294Z,94468.53
2023-02-23T09:48:23.355Z,94448.66
2023-02-23T09:50:54.132Z,94460.47
2023-02-23T09:53:33.746Z,94459.06
2023-02-23T09:56:04.385Z,94458.13
2023-02-23T09:58:35.500Z,94457.97
2023-02-23T10:01:29.846Z,94448.00
2023-02-23T10:04:04.870Z,94450.56
2023-02-23T10:06:32.890Z,94439.78
2023-02-23T10:09:13.721Z,94428.13
2023-02-23T10:11:47.173Z,94434.03
2023-02-23T10:14:35.523Z,94430.19
2023-02-23T10:17:16.472Z,94436.81
2023-02-23T10:19:51.659Z,94434.16
2023-02-23T10:22:21.565Z,94416.81
2023-02-23T10:24:55.380Z,94424.63
2023-02-23T10:27:29.147Z,94426.75
2023-02-23T10:30:06.094Z,94416.88
2023-02-23T10:32:41.616Z,94422.78
2023-02-23T10:35:13.257Z,94406.72
2023-02-23T10:37:42.596Z,94416.72
2023-02-23T10:40:16.689Z,94409.97
2023-02-23T10:42:44.830Z,94398.00
2023-02-23T10:45:23.267Z,94401.88
2023-02-23T10:47:55.762Z,94401.69
2023-02-23T10:50:27.552Z,94391.41
2023-02-23T10:52:59.913Z,94385.97
2023-02-23T10:55:31.646Z,94387.59
2023-02-23T10:58:05.682Z,94388.53
2023-02-23T11:00:37.060Z,94383.91
2023-02-23T11:03:19.964Z,94379.19
2023-02-23T11:05:53.133Z,94376.63
2023-02-23T11:08:27.389Z,94354.28
2023-02-23T11:11:28.698Z,94374.75
2023-02-23T11:13:58.595Z,94356.16
2023-02-23T11:16:31.887Z,94363.78
2023-02-23T11:19:01.585Z,94363.78
2023-02-23T11:21:33.628Z,94359.69
2023-02-23T11:24:13.252Z,94351.38
2023-02-23T11:26:44.046Z,94335.81
2023-02-23T11:29:22.835Z,94357.72
2023-02-23T11:31:55.394Z,94336.53
2023-02-23T11:34:30.738Z,94325.72
2023-02-23T11:37:05.084Z,94345.50
2023-02-23T11:39:34.263Z,94347.31
2023-02-23T11:42:15.509Z,94334.84
2023-02-23T11:44:44.029Z,94329.22
2023-02-23T11:47:20.606Z,94338.78
2023-02-23T11:49:50.783Z,94338.03
2023-02-23T11:52:22.251Z,94331.63
2023-02-23T11:54:59.067Z,94329.50
2023-02-23T11:57:33.852Z,94315.22
2023-02-23T12:00:16.799Z,94295.75
2023-02-23T12:02:58.850Z,94294.59
2023-02-23T12:05:31.465Z,94274.22
2023-02-23T12:08:10.080Z,94317.25
2023-02-23T12:10:44.368Z,94287.78
2023-02-23T12:13:25.959Z,94288.94
2023-02-23T12:16:02.301Z,94291.97
2023-02-23T12:18:48.271Z,94319.94
2023-02-23T12:21:45.834Z,94271.94
2023-02-23T12:24:26.382Z,94263.19
2023-02-23T12:27:15.851Z,94264.47
2023-02-23T12:30:19.120Z,94265.19
2023-02-23T12:32:58.116Z,94259.84
2023-02-23T12:35:38.894Z,94253.03
2023-02-23T12:38:23.245Z,94273.03
2023-02-23T12:41:03.864Z,94277.72
2023-02-23T12:43:50.586Z,94283.50
2023-02-23T12:46:29.966Z,94254.22
2023-02-23T12:49:13.090Z,94260.16
2023-02-23T12:51:46.036Z,94297.34
2023-02-23T12:54:16.970Z,94304.66
2023-02-23T12:56:55.666Z,94290.19
2023-02-23T13:00:24.226Z,94301.72
2023-02-23T13:03:16.768Z,94290.41
2023-02-23T13:05:53.504Z,94241.03
2023-02-23T13:08:43.585Z,94291.34
2023-02-23T13:11:31.300Z,94248.94
2023-02-23T13:14:08.520Z,94280.63
2023-02-23T13:16:45.892Z,94273.59
2023-02-23T13:19:32.699Z,94258.47
2023-02-23T13:22:14.634Z,94285.97
2023-02-23T13:24:55.216Z,94258.56
2023-02-23T13:27:38.028Z,94258.25
2023-02-23T13:30:19.616Z,94243.94
2023-02-23T13:32:51.839Z,94281.41
2023-02-23T13:35:27.338Z,94240.41
2023-02-23T13:38:10.431Z,94276.47
2023-02-23T13:41:00.928Z,94287.31
2023-02-23T13:43:44.147Z,94267.88
2023-02-23T13:46:27.825Z,94261.91
2023-02-23T13:49:03.203Z,94285.94
2023-02-23T13:51:45.468Z,94285.84
2023-02-23T13:54:25.256Z,94266.97
2023-02-23T13:56:57.746Z,94290.88
2023-02-23T13:59:29.420Z,94287.56
2023-02-23T14:01:58.400Z,94297.56
2023-02-23T14:04:29.388Z,94280.00
2023-02-23T14:07:04.433Z,94272.00
2023-02-23T14:09:39.936Z,94256.22
2023-02-23T14:12:41.218Z,94272.03
2023-02-23T14:15:45.488Z,94289.53
2023-02-23T14:18:41.159Z,94293.66
2023-02-23T14:21:30.781Z,94244.78
2023-02-23T14:24:26.574Z,94275.91
2023-02-23T14:27:42.191Z,94297.75
2023-02-23T14:30:50.812Z,94297.34
2023-02-23T14:34:03.904Z,94271.41
2023-02-23T14:36:50.512Z,94269.81
2023-02-23T14:39:26.071Z,94255.22
2023-02-23T14:42:02.527Z,94276.41
2023-02-23T14:44:40.943Z,94258.13
2023-02-23T14:47:15.508Z,94234.63
2023-02-23T14:49:51.775Z,94293.72
2023-02-23T14:52:24.551Z,94301.44
2023-02-23T14:54:53.578Z,94287.09
2023-02-23T14:57:24.494Z,94303.63
2023-02-23T14:59:59.552Z,94290.63
2023-02-23T15:02:31.335Z,94305.63
2023-02-23T15:05:22.018Z,94293.91
2023-02-23T15:07:51.979Z,94296.59
2023-02-23T15:10:25.947Z,94275.94
2023-02-23T15:12:54.929Z,94314.34
2023-02-23T15:15:26.314Z,94316.50
2023-02-23T15:17:59.042Z,94313.50
2023-02-23T15:20:32.748Z,94318.56
2023-02-23T15:23:03.605Z,94315.31
2023-02-23T15:25:37.910Z,94328.38
2023-02-23T15:28:20.952Z,94332.66
2023-02-23T15:30:50.544Z,94339.91
2023-02-23T15:33:23.624Z,94349.38
2023-02-23T15:35:55.333Z,94345.97
2023-02-23T15:38:42.785Z,94347.00
2023-02-23T15:41:20.387Z,94355.59
2023-02-23T15:43:48.589Z,94362.25
2023-02-23T15:46:26.145Z,94368.47
2023-02-23T15:49:00.859Z,94377.09
2023-02-23T15:51:35.474Z,94376.22
2023-02-23T15:54:07.893Z,94378.19
2023-02-23T15:56:36.259Z,94376.91
2023-02-23T15:59:11.127Z,94387.72
2023-02-23T16:01:44.680Z,94365.28
2023-02-23T16:04:19.801Z,94385.38
2023-02-23T16:06:52.563Z,94393.56
2023-02-23T16:09:28.994Z,94382.28
2023-02-23T16:12:01.543Z,94389.31
2023-02-23T16:14:35.190Z,94397.47
2023-02-23T16:17:11.454Z,94389.41
2023-02-23T16:19:42.185Z,94401.78
2023-02-23T16:22:21.676Z,94402.72
2023-02-23T16:24:59.561Z,94409.75
2023-02-23T16:27:28.310Z,94409.69
2023-02-23T16:30:01.600Z,94413.72
2023-02-23T16:32:38.835Z,94412.63
2023-02-23T16:35:18.157Z,94423.59
2023-02-23T16:37:58.924Z,94406.00
2023-02-23T16:40:27.107Z,94415.88
2023-02-23T16:42:59.113Z,94433.66
2023-02-23T16:45:29.672Z,94426.34
2023-02-23T16:48:02.631Z,94424.25
2023-02-23T16:50:33.724Z,94444.03
2023-02-23T16:53:02.219Z,94445.50
2023-02-23T16:55:30.948Z,94440.66
2023-02-23T16:58:01.799Z,94443.56
2023-02-23T17:00:31.728Z,94439.22
2023-02-23T17:03:01.389Z,94443.00
2023-02-23T17:05:31.253Z,94449.38
2023-02-23T17:07:59.749Z,94447.16
2023-02-23T17:10:32.180Z,94440.44
2023-02-23T17:13:03.012Z,94458.03
2023-02-23T17:15:34.308Z,94460.28
2023-02-23T17:18:02.517Z,94452.47
2023-02-23T17:20:32.958Z,94465.50
2023-02-23T17:23:05.402Z,94468.19
2023-02-23T17:25:33.936Z,94470.78
2023-02-23T17:28:01.959Z,94472.84
2023-02-23T17:30:31.002Z,94478.06
2023-02-23T17:33:00.297Z,94482.09
2023-02-23T17:35:28.854Z,94479.38
2023-02-23T17:37:58.112Z,94477.03
2023-02-23T17:40:29.862Z,94474.25
2023-02-23T17:42:59.843Z,94478.25
2023-02-23T17:45:28.746Z,94481.53
2023-02-23T17:47:57.420Z,94481.13
2023-02-23T17:50:27.111Z,94472.84
2023-02-23T17:52:55.400Z,94459.81
2023-02-23T17:55:25.706Z,94481.97
2023-02-23T17:57:53.712Z,94476.47
2023-02-23T18:00:22.071Z,94472.00
2023-02-23T18:02:50.105Z,94470.78
2023-02-23T18:05:18.692Z,94478.78
2023-02-23T18:07:48.680Z,94465.84
2023-02-23T18:10:17.340Z,94478.47
2023-02-23T18:12:46.797Z,94473.47
2023-02-23T18:15:14.790Z,94478.84
2023-02-23T18:17:42.651Z,94481.44
2023-02-23T18:20:15.280Z,94487.81
2023-02-23T18:22:43.607Z,94488.66
2023-02-23T18:25:21.312Z,94491.47
2023-02-23T18:27:54.123Z,94491.66
2023-02-23T18:30:23.119Z,94494.91
2023-02-23T18:32:52.513Z,94493.22
2023-02-23T18:35:20.652Z,94496.16
2023-02-23T18:37:49.795Z,94478.88
2023-02-23T18:40:21.598Z,94488.63
2023-02-23T18:42:49.753Z,94490.94
2023-02-23T18:45:19.103Z,94500.84
2023-02-23T18:47:47.004Z,94494.56
2023-02-23T18:50:19.303Z,94509.50
2023-02-23T18:52:48.184Z,94509.50
2023-02-23T18:55:16.442Z,94501.78
2023-02-23T18:57:44.759Z,94495.16
2023-02-23T19:00:14.537Z,94513.16
2023-02-23T19:02:46.377Z,94517.34
2023-02-23T19:05:15.638Z,94520.94
2023-02-23T19:07:43.795Z,94525.47
2023-02-23T19:10:16.386Z,94518.34
2023-02-23T19:12:44.641Z,94521.59
2023-02-23T19:15:13.401Z,94529.38
2023-02-23T19:17:41.455Z,94518.69
2023-02-23T19:20:15.744Z,94527.72
2023-02-23T19:22:43.853Z,94539.06
2023-02-23T19:25:14.489Z,94540.53
2023-02-23T19:27:43.100Z,94546.22
2023-02-23T19:30:12.338Z,94542.28
2023-02-23T19:32:40.822Z,94547.47
2023-02-23T19:35:14.886Z,94542.41
2023-02-23T19:37:48.521Z,94553.94
2023-02-23T19:40:19.958Z,94562.66
2023-02-23T19:42:48.809Z,94553.78
2023-02-23T19:45:16.834Z,94556.03
2023-02-23T19:47:44.998Z,94564.09
2023-02-23T19:50:16.957Z,94571.06
2023-02-23T19:52:45.939Z,94571.38
2023-02-23T19:55:14.015Z,94569.59
2023-02-23T19:57:42.005Z,94572.69
2023-02-23T20:00:12.448Z,94574.78
2023-02-23T20:02:42.761Z,94576.09
2023-02-23T20:05:12.045Z,94570.09
2023-02-23T20:07:41.684Z,94578.84
2023-02-23T20:10:13.982Z,94568.66
2023-02-23T20:12:41.886Z,94574.00
2023-02-23T20:15:11.210Z,94574.78
2023-02-23T20:17:40.262Z,94572.19
2023-02-23T20:20:11.113Z,94567.81
2023-02-23T20:22:41.405Z,94575.44
2023-02-23T20:25:12.694Z,94572.81
2023-02-23T20:27:41.516Z,94570.84
2023-02-23T20:30:10.830Z,94580.38
2023-02-23T20:32:38.852Z,94571.47
2023-02-23T20:35:07.512Z,94564.50
2023-02-23T20:37:35.443Z,94569.22
2023-02-23T20:40:09.285Z,94573.16
2023-02-23T20:42:39.197Z,94571.34
2023-02-23T20:45:08.954Z,94577.66
2023-02-23T20:47:38.152Z,94575.59
2023-02-23T20:50:10.390Z,94574.63
2023-02-23T20:52:38.653Z,94576.09
2023-02-23T20:55:08.606Z,94566.69
2023-02-23T20:57:38.627Z,94581.72
2023-02-23T21:00:10.657Z,94581.25
2023-02-23T21:02:40.927Z,94584.19
2023-02-23T21:05:12.379Z,94579.16
2023-02-23T21:07:40.579Z,94577.06
2023-02-23T21:10:10.912Z,94578.66
2023-02-23T21:12:40.103Z,94578.66
2023-02-23T21:15:09.372Z,94579.50
2023-02-23T21:17:38.545Z,94586.94
2023-02-23T21:20:10.191Z,94578.84
2023-02-23T21:22:38.165Z,94581.78
2023-02-23T21:25:07.522Z,94580.16
2023-02-23T21:27:35.452Z,94580.00
2023-02-23T21:30:06.277Z,94574.97
2023-02-23T21:32:37.120Z,94577.56
2023-02-23T21:35:05.483Z,94585.50
2023-02-23T21:37:33.604Z,94584.25
2023-02-23T21:40:01.533Z,94579.19
2023-02-23T21:42:29.899Z,94583.59
2023-02-23T21:44:57.757Z,94584.72
2023-02-23T21:47:27.126Z,94574.03
2023-02-23T21:49:55.074Z,94586.63
2023-02-23T21:52:23.025Z,94579.16
2023-02-23T21:54:51.147Z,94586.13
2023-02-23T21:57:22.658Z,94578.84
2023-02-23T21:59:50.851Z,94574.31
2023-02-23T22:02:18.882Z,94579.00
2023-02-23T22:04:49.151Z,94574.63
2023-02-23T22:07:17.798Z,94581.59
2023-02-23T22:09:45.923Z,94576.38
2023-02-23T22:12:13.739Z,94590.16
2023-02-23T22:14:41.637Z,94584.81
2023-02-23T22:17:10.329Z,94583.69
2023-02-23T22:19:41.148Z,94589.84
2023-02-23T22:22:10.695Z,94587.91
2023-02-23T22:24:39.061Z,94578.44
2023-02-23T22:27:07.790Z,94577.81
2023-02-23T22:29:35.650Z,94583.34
2023-02-23T22:32:03.594Z,94583.69
2023-02-23T22:34:31.462Z,94588.84
2023-02-23T22:36:59.444Z,94586.59
2023-02-23T22:39:33.404Z,94581.38
2023-02-23T22:42:09.202Z,94582.66
2023-02-23T22:44:39.730Z,94575.69
2023-02-23T22:47:08.375Z,94575.69
2023-02-23T22:49:36.477Z,94577.19
2023-02-23T22:52:04.479Z,94578.63
2023-02-23T22:54:35.368Z,94578.97
2023-02-23T22:57:03.281Z,94574.06
2023-02-23T22:59:31.163Z,94573.56
2023-02-23T23:01:59.094Z,94579.25
2023-02-23T23:04:27.625Z,94586.00
2023-02-23T23:06:55.543Z,94576.31
2023-02-23T23:09:23.421Z,94580.19
2023-02-23T23:11:52.657Z,94582.13
2023-02-23T23:14:20.615Z,94577.59
2023-02-23T23:16:49.785Z,94583.56
2023-02-23T23:19:23.907Z,94586.31
2023-02-23T23:21:55.158Z,94583.06
2023-02-23T23:24:24.992Z,94571.88
2023-02-23T23:27:00.278Z,94571.72
2023-02-23T23:29:30.760Z,94571.38
2023-02-23T23:31:58.772Z,94570.88
2023-02-23T23:34:26.702Z,94566.81
2023-02-23T23:36:55.461Z,94567.28
2023-02-23T23:39:25.982Z,94571.16
2023-02-23T23:41:55.835Z,94572.72
2023-02-23T23:44:29.085Z,94566.44
2023-02-23T23:46:58.116Z,94573.88
2023-02-23T23:49:26.644Z,94567.56
2023-02-23T23:51:56.956Z,94571.75
2023-02-23T23:54:27.084Z,94573.06
2023-02-23T23:56:56.598Z,94570.84
2023-02-23T23:59:26.677Z,94568.69
